createdAt,value
2018-11-10T00:00:40.584Z,92.30
2018-11-10T00:02:45.001Z,92.40
2018-11-10T00:04:48.658Z,92.30
2018-11-10T00:06:52.289Z,92.40
2018-11-10T00:08:56.057Z,92.30
2018-11-10T00:10:59.810Z,92.40
2018-11-10T00:13:03.683Z,92.30
2018-11-10T00:15:09.283Z,92.30
2018-11-10T00:17:13.120Z,92.40
2018-11-10T00:19:16.794Z,92.40
2018-11-10T00:21:20.558Z,92.50
2018-11-10T00:23:24.352Z,92.40
2018-11-10T00:25:28.090Z,92.00
2018-11-10T00:27:32.437Z,92.40
2018-11-10T00:29:36.652Z,92.00
2018-11-10T00:31:40.390Z,92.50
2018-11-10T00:33:44.408Z,92.50
2018-11-10T00:35:48.125Z,92.50
2018-11-10T00:37:51.980Z,92.50
2018-11-10T00:39:55.809Z,92.00
2018-11-10T00:42:00.283Z,92.10
2018-11-10T00:44:04.113Z,92.50
2018-11-10T00:46:08.057Z,92.20
2018-11-10T00:48:11.876Z,92.00
2018-11-10T00:50:16.549Z,92.10
2018-11-10T00:52:20.305Z,92.20
2018-11-10T00:54:24.038Z,92.10
2018-11-10T00:56:28.784Z,92.20
2018-11-10T00:58:32.513Z,92.50
2018-11-10T01:00:36.942Z,92.30
2018-11-10T01:02:41.422Z,92.30
2018-11-10T01:04:45.211Z,92.70
2018-11-10T01:06:48.993Z,92.30
2018-11-10T01:08:52.735Z,92.60
2018-11-10T01:10:56.639Z,92.40
2018-11-10T01:13:00.394Z,92.70
2018-11-10T01:15:04.094Z,92.40
2018-11-10T01:17:07.930Z,92.40
2018-11-10T01:19:11.553Z,92.90
2018-11-10T01:21:15.429Z,93.00
2018-11-10T01:23:19.060Z,93.10
2018-11-10T01:25:23.657Z,93.00
2018-11-10T01:27:28.001Z,93.10
2018-11-10T01:29:31.737Z,93.00
2018-11-10T01:31:35.491Z,92.60
2018-11-10T01:33:39.438Z,92.40
2018-11-10T01:35:43.170Z,92.30
2018-11-10T01:37:46.944Z,93.00
2018-11-10T01:39:50.604Z,92.70
2018-11-10T01:41:54.329Z,92.80
2018-11-10T01:43:58.094Z,92.80
2018-11-10T01:46:01.939Z,92.90
2018-11-10T01:48:05.897Z,93.00
2018-11-10T01:50:10.594Z,93.00
2018-11-10T01:52:14.394Z,93.20
2018-11-10T01:54:18.477Z,93.10
2018-11-10T01:56:22.126Z,93.00
2018-11-10T01:58:25.817Z,93.00
2018-11-10T02:00:29.830Z,92.90
2018-11-10T02:02:33.560Z,93.10
2018-11-10T02:04:37.326Z,93.00
2018-11-10T02:06:41.136Z,93.00
2018-11-10T02:08:46.183Z,93.10
2018-11-10T02:10:49.994Z,93.00
2018-11-10T02:12:53.870Z,93.10
2018-11-10T02:14:57.585Z,93.10
2018-11-10T02:17:02.443Z,93.10
2018-11-10T02:19:06.649Z,93.10
2018-11-10T02:21:10.527Z,93.30
2018-11-10T02:23:14.282Z,93.20
2018-11-10T02:25:18.382Z,93.20
2018-11-10T02:27:23.145Z,93.30
2018-11-10T02:29:26.841Z,93.20
2018-11-10T02:31:30.775Z,93.30
2018-11-10T02:33:34.530Z,93.40
2018-11-10T02:35:38.342Z,93.40
2018-11-10T02:37:42.628Z,93.40
2018-11-10T02:39:46.373Z,93.30
2018-11-10T02:41:50.253Z,93.30
2018-11-10T02:43:53.934Z,93.40
2018-11-10T02:45:57.802Z,93.20
2018-11-10T02:48:01.825Z,93.50
2018-11-10T02:50:06.294Z,93.50
2018-11-10T02:52:10.071Z,93.50
2018-11-10T02:54:13.858Z,93.40
2018-11-10T02:56:17.558Z,93.40
2018-11-10T02:58:21.197Z,93.50
2018-11-10T03:00:24.921Z,93.50
2018-11-10T03:02:28.720Z,93.50
2018-11-10T03:04:32.473Z,93.70
2018-11-10T03:06:36.361Z,93.70
2018-11-10T03:08:39.982Z,93.60
2018-11-10T03:10:44.563Z,93.60
2018-11-10T03:12:48.397Z,93.50
2018-11-10T03:16:16.764Z,93.60
2018-11-10T03:18:20.416Z,93.60
2018-11-10T03:20:24.325Z,93.60
2018-11-10T03:22:28.090Z,93.50
2018-11-10T03:24:31.854Z,93.50
2018-11-10T03:26:35.595Z,93.40
2018-11-10T03:28:39.365Z,93.40
2018-11-10T03:30:43.045Z,93.40
2018-11-10T03:32:46.861Z,93.50
2018-11-10T03:34:51.561Z,93.40
2018-11-10T03:36:55.178Z,93.40
2018-11-10T03:38:58.785Z,93.40
2018-11-10T03:41:02.481Z,93.40
2018-11-10T03:43:06.909Z,93.20
2018-11-10T03:45:11.809Z,93.30
2018-11-10T03:47:15.614Z,93.30
2018-11-10T03:49:19.322Z,93.30
2018-11-10T03:51:23.014Z,93.30
2018-11-10T03:53:26.971Z,93.40
2018-11-10T03:55:30.773Z,93.40
2018-11-10T03:57:34.541Z,93.30
2018-11-10T03:59:38.536Z,93.40
2018-11-10T04:01:42.183Z,93.30
2018-11-10T04:03:45.879Z,93.30
2018-11-10T04:05:49.669Z,93.40
2018-11-10T04:07:53.884Z,93.40
2018-11-10T04:09:57.753Z,93.70
2018-11-10T04:12:02.552Z,93.50
2018-11-10T04:14:06.657Z,93.30
2018-11-10T04:16:11.364Z,93.30
2018-11-10T04:18:15.121Z,93.30
2018-11-10T04:20:18.957Z,93.20
2018-11-10T04:22:38.129Z,93.20
2018-11-10T04:24:41.810Z,93.30
2018-11-10T04:26:45.475Z,93.30
2018-11-10T04:28:50.045Z,93.20
2018-11-10T04:30:53.713Z,93.10
2018-11-10T04:32:57.587Z,93.00
2018-11-10T04:35:01.313Z,93.10
2018-11-10T04:37:05.061Z,92.90
2018-11-10T04:39:08.846Z,93.00
2018-11-10T04:41:12.622Z,93.10
2018-11-10T04:43:16.417Z,93.20
2018-11-10T04:45:20.202Z,93.30
2018-11-10T04:47:24.069Z,93.20
2018-11-10T04:49:27.849Z,93.00
2018-11-10T04:51:31.529Z,93.20
2018-11-10T04:53:35.367Z,93.30
2018-11-10T04:55:39.064Z,93.40
2018-11-10T04:57:42.725Z,93.20
2018-11-10T04:59:46.449Z,93.70
2018-11-10T05:01:50.246Z,93.40
2018-11-10T05:03:54.005Z,93.40
2018-11-10T05:05:58.517Z,93.50
2018-11-10T05:08:02.216Z,93.40
2018-11-10T05:10:07.134Z,93.50
2018-11-10T05:12:11.786Z,93.50
2018-11-10T05:14:15.575Z,93.50
2018-11-10T05:16:19.314Z,93.30
2018-11-10T05:18:23.267Z,93.50
2018-11-10T05:20:26.961Z,93.50
2018-11-10T05:22:30.742Z,93.50
2018-11-10T05:24:34.445Z,93.50
2018-11-10T05:26:38.413Z,93.60
2018-11-10T05:28:42.124Z,93.60
2018-11-10T05:30:46.557Z,93.40
2018-11-10T05:32:50.266Z,93.50
2018-11-10T05:34:53.954Z,93.50
2018-11-10T05:36:57.585Z,93.50
2018-11-10T05:39:01.262Z,93.50
2018-11-10T05:41:05.565Z,93.50
2018-11-10T05:43:09.206Z,93.50
2018-11-10T05:45:13.090Z,93.50
2018-11-10T05:47:16.744Z,93.60
2018-11-10T05:49:20.462Z,93.70
2018-11-10T05:51:24.305Z,93.50
2018-11-10T05:53:28.045Z,93.50
2018-11-10T05:55:31.933Z,93.50
2018-11-10T05:57:35.654Z,93.60
2018-11-10T05:59:39.603Z,93.50
2018-11-10T06:01:43.436Z,93.60
2018-11-10T06:03:47.149Z,93.50
2018-11-10T06:05:51.901Z,93.80
2018-11-10T06:07:55.529Z,93.40
2018-11-10T06:09:59.317Z,93.30
2018-11-10T06:12:02.873Z,93.40
2018-11-10T06:14:06.718Z,93.50
2018-11-10T06:16:10.500Z,93.50
2018-11-10T06:18:14.053Z,93.50
2018-11-10T06:20:17.821Z,93.50
2018-11-10T06:22:21.609Z,93.40
2018-11-10T06:24:26.270Z,93.40
2018-11-10T06:26:30.402Z,93.40
2018-11-10T06:28:34.961Z,93.40
2018-11-10T06:30:38.589Z,93.30
2018-11-10T06:32:42.359Z,93.40
2018-11-10T06:34:46.218Z,93.30
2018-11-10T06:36:50.259Z,93.30
2018-11-10T06:38:54.205Z,93.30
2018-11-10T06:40:58.021Z,93.70
2018-11-10T06:43:01.657Z,93.20
2018-11-10T06:45:05.937Z,93.30
2018-11-10T06:47:09.704Z,93.30
2018-11-10T06:49:13.446Z,93.40
2018-11-10T06:51:17.097Z,93.40
2018-11-10T06:53:20.913Z,93.40
2018-11-10T06:55:24.671Z,93.40
2018-11-10T06:57:28.521Z,93.40
2018-11-10T06:59:32.283Z,93.40
2018-11-10T07:01:36.141Z,93.40
2018-11-10T07:03:39.936Z,93.40
2018-11-10T07:05:43.757Z,93.40
2018-11-10T07:07:47.485Z,93.40
2018-11-10T07:09:51.186Z,93.40
2018-11-10T07:11:55.188Z,93.30
2018-11-10T07:13:58.885Z,93.50
2018-11-10T07:16:02.534Z,93.50
2018-11-10T07:18:06.440Z,93.60
2018-11-10T07:20:10.014Z,93.50
2018-11-10T07:22:13.613Z,93.30
2018-11-10T07:24:17.524Z,93.40
2018-11-10T07:26:21.250Z,93.30
2018-11-10T07:28:24.853Z,93.30
2018-11-10T07:30:28.509Z,93.20
2018-11-10T07:32:32.250Z,93.20
2018-11-10T07:34:35.953Z,93.00
2018-11-10T07:36:39.709Z,93.10
2018-11-10T07:38:43.494Z,93.20
2018-11-10T07:40:47.213Z,93.00
2018-11-10T07:44:15.397Z,93.10
2018-11-10T07:46:19.146Z,93.10
2018-11-10T07:48:22.877Z,93.30
2018-11-10T07:50:26.554Z,93.20
2018-11-10T07:52:30.217Z,93.10
2018-11-10T07:54:34.025Z,93.20
2018-11-10T07:56:37.915Z,93.20
2018-11-10T07:58:41.747Z,93.30
2018-11-10T08:00:45.453Z,93.10
2018-11-10T08:02:49.463Z,93.60
2018-11-10T08:04:53.154Z,93.00
2018-11-10T08:06:56.839Z,93.10
2018-11-10T08:09:00.605Z,93.10
2018-11-10T08:11:04.325Z,93.30
2018-11-10T08:13:08.143Z,93.00
2018-11-10T08:15:16.061Z,93.20
2018-11-10T08:17:19.833Z,93.00
2018-11-10T08:19:23.617Z,93.10
2018-11-10T08:21:27.641Z,93.10
2018-11-10T08:23:32.082Z,93.10
2018-11-10T08:25:35.895Z,93.10
2018-11-10T08:27:40.563Z,93.00
2018-11-10T08:29:44.307Z,93.00
2018-11-10T08:31:48.120Z,93.00
2018-11-10T08:33:51.873Z,93.10
2018-11-10T08:35:55.541Z,93.10
2018-11-10T08:37:59.318Z,93.30
2018-11-10T08:40:03.091Z,93.00
2018-11-10T08:42:06.809Z,93.00
2018-11-10T08:44:10.575Z,93.00
2018-11-10T08:46:14.338Z,93.00
2018-11-10T08:48:18.078Z,93.10
2018-11-10T08:50:21.885Z,93.00
2018-11-10T08:52:25.805Z,93.00
2018-11-10T08:54:29.545Z,93.00
2018-11-10T08:56:33.402Z,93.30
2018-11-10T08:58:37.308Z,92.80
2018-11-10T09:00:41.729Z,93.00
2018-11-10T09:02:45.641Z,93.00
2018-11-10T09:04:49.369Z,93.00
2018-11-10T09:06:53.203Z,93.00
2018-11-10T09:08:56.952Z,92.80
2018-11-10T09:11:00.699Z,92.30
2018-11-10T09:13:04.430Z,92.40
2018-11-10T09:15:10.176Z,92.70
2018-11-10T09:17:13.831Z,92.20
2018-11-10T09:19:17.640Z,92.30
2018-11-10T09:21:21.501Z,92.20
2018-11-10T09:23:25.057Z,92.20
2018-11-10T09:25:28.909Z,92.00
2018-11-10T09:27:32.693Z,92.20
2018-11-10T09:29:36.877Z,92.00
2018-11-10T09:31:40.523Z,92.20
2018-11-10T09:33:44.195Z,91.90
2018-11-10T09:35:47.975Z,91.90
2018-11-10T09:37:51.714Z,92.00
2018-11-10T09:39:55.546Z,91.60
2018-11-10T09:41:59.378Z,91.70
2018-11-10T09:44:03.377Z,91.70
2018-11-10T09:46:07.337Z,91.60
2018-11-10T09:48:11.014Z,91.60
2018-11-10T09:50:18.462Z,91.60
2018-11-10T09:52:22.182Z,91.40
2018-11-10T09:54:26.104Z,91.30
2018-11-10T09:56:29.726Z,91.40
2018-11-10T09:58:33.499Z,91.30
2018-11-10T10:00:37.393Z,91.20
2018-11-10T10:02:41.688Z,91.20
2018-11-10T10:04:45.166Z,91.10
2018-11-10T10:06:48.998Z,91.00
2018-11-10T10:08:52.934Z,91.00
2018-11-10T10:10:56.543Z,91.10
2018-11-10T10:13:00.265Z,90.90
2018-11-10T10:15:04.217Z,91.10
2018-11-10T10:17:07.989Z,91.00
2018-11-10T10:19:11.771Z,91.00
2018-11-10T10:21:15.663Z,90.90
2018-11-10T10:23:19.317Z,91.20
2018-11-10T10:25:23.706Z,91.10
2018-11-10T10:27:27.425Z,91.10
2018-11-10T10:29:31.146Z,91.10
2018-11-10T10:31:35.030Z,91.10
2018-11-10T10:33:39.723Z,91.20
2018-11-10T10:35:43.370Z,91.10
2018-11-10T10:37:47.925Z,91.10
2018-11-10T10:39:51.690Z,91.10
2018-11-10T10:41:55.461Z,91.00
2018-11-10T10:43:59.256Z,91.10
2018-11-10T10:46:03.053Z,90.80
2018-11-10T10:48:06.825Z,90.90
2018-11-10T10:50:12.335Z,90.90
2018-11-10T10:52:16.038Z,90.90
2018-11-10T10:54:19.809Z,90.60
2018-11-10T10:56:23.517Z,90.80
2018-11-10T10:58:27.249Z,91.10
2018-11-10T11:00:36.136Z,90.70
2018-11-10T11:02:45.115Z,90.80
2018-11-10T11:05:09.080Z,90.70
2018-11-10T11:07:12.898Z,90.40
2018-11-10T11:09:16.661Z,90.60
2018-11-10T11:11:20.341Z,90.30
2018-11-10T11:13:24.665Z,90.40
2018-11-10T11:15:28.533Z,90.60
2018-11-10T11:17:32.085Z,90.40
2018-11-10T11:19:35.721Z,90.40
2018-11-10T11:21:39.600Z,90.40
2018-11-10T11:23:43.438Z,90.40
2018-11-10T11:25:47.089Z,90.40
2018-11-10T11:27:50.917Z,90.30
2018-11-10T11:29:54.621Z,90.30
2018-11-10T11:31:58.347Z,90.30
2018-11-10T11:34:02.215Z,90.30
2018-11-10T11:36:05.922Z,90.20
2018-11-10T11:38:09.717Z,90.10
2018-11-10T11:40:14.524Z,90.00
2018-11-10T11:42:19.175Z,90.00
2018-11-10T11:44:22.930Z,90.20
2018-11-10T11:46:26.822Z,90.30
2018-11-10T11:48:30.546Z,90.20
2018-11-10T11:50:34.385Z,90.10
2018-11-10T11:52:38.582Z,90.00
2018-11-10T11:54:43.061Z,89.60
2018-11-10T11:56:46.858Z,89.50
2018-11-10T11:58:50.589Z,89.20
2018-11-10T12:00:54.281Z,89.50
2018-11-10T12:02:58.015Z,90.00
2018-11-10T12:05:01.802Z,89.60
2018-11-10T12:07:05.882Z,90.00
2018-11-10T12:09:10.783Z,89.60
2018-11-10T12:12:40.193Z,89.80
2018-11-10T12:14:44.523Z,90.00
2018-11-10T12:16:48.309Z,90.20
2018-11-10T12:18:51.949Z,89.90
2018-11-10T12:20:55.657Z,90.00
2018-11-10T12:22:59.322Z,90.00
2018-11-10T12:25:02.969Z,90.10
2018-11-10T12:27:06.929Z,90.10
2018-11-10T12:29:10.601Z,89.90
2018-11-10T12:32:39.014Z,90.10
2018-11-10T12:34:42.742Z,90.10
2018-11-10T12:36:46.620Z,90.20
2018-11-10T12:38:50.476Z,90.70
2018-11-10T12:40:54.226Z,90.40
2018-11-10T12:42:57.953Z,90.30
2018-11-10T12:45:01.732Z,90.30
2018-11-10T12:47:05.547Z,90.30
2018-11-10T12:49:10.252Z,90.30
2018-11-10T12:51:13.949Z,90.30
2018-11-10T12:53:17.589Z,90.30
2018-11-10T12:55:21.963Z,90.30
2018-11-10T12:57:25.790Z,90.30
2018-11-10T12:59:29.573Z,90.40
2018-11-10T13:01:33.385Z,90.30
2018-11-10T13:03:37.169Z,90.30
2018-11-10T13:05:41.142Z,90.30
2018-11-10T13:07:46.021Z,90.40
2018-11-10T13:09:49.793Z,90.60
2018-11-10T13:11:53.592Z,90.40
2018-11-10T13:13:57.197Z,90.30
2018-11-10T13:16:00.837Z,90.30
2018-11-10T13:18:04.685Z,90.30
2018-11-10T13:20:10.536Z,90.30
2018-11-10T13:22:14.435Z,90.20
2018-11-10T13:24:18.167Z,90.20
2018-11-10T13:26:21.802Z,90.30
2018-11-10T13:28:25.729Z,90.30
2018-11-10T13:30:30.029Z,90.40
2018-11-10T13:32:33.801Z,90.40
2018-11-10T13:34:37.620Z,90.50
2018-11-10T13:36:41.409Z,90.50
2018-11-10T13:38:45.192Z,90.60
2018-11-10T13:40:49.519Z,90.60
2018-11-10T13:42:53.193Z,90.60
2018-11-10T13:44:57.058Z,90.70
2018-11-10T13:47:00.971Z,90.60
2018-11-10T13:49:04.669Z,90.70
2018-11-10T13:51:09.454Z,90.70
2018-11-10T13:53:13.069Z,90.60
2018-11-10T13:55:16.835Z,90.30
2018-11-10T13:57:20.966Z,90.90
2018-11-10T13:59:24.816Z,90.50
2018-11-10T14:01:28.968Z,90.50
2018-11-10T14:03:32.798Z,90.50
2018-11-10T14:05:36.598Z,90.50
2018-11-10T14:07:40.541Z,90.60
2018-11-10T14:09:45.080Z,90.50
2018-11-10T14:11:48.961Z,90.60
2018-11-10T14:13:52.654Z,90.60
2018-11-10T14:15:57.066Z,90.60
2018-11-10T14:18:01.129Z,90.60
2018-11-10T14:20:06.737Z,90.70
2018-11-10T14:22:10.795Z,90.70
2018-11-10T14:24:14.594Z,90.70
2018-11-10T14:26:18.393Z,90.80
2018-11-10T14:28:22.249Z,90.80
2018-11-10T14:30:26.013Z,90.80
2018-11-10T14:32:29.787Z,90.80
2018-11-10T14:34:33.605Z,90.70
2018-11-10T14:36:37.366Z,90.80
2018-11-10T14:38:41.077Z,90.80
2018-11-10T14:40:44.860Z,91.00
2018-11-10T14:42:49.797Z,90.80
2018-11-10T14:44:53.522Z,90.80
2018-11-10T14:46:57.249Z,90.80
2018-11-10T14:49:01.150Z,90.80
2018-11-10T14:51:05.289Z,90.80
2018-11-10T14:53:09.196Z,90.90
2018-11-10T14:55:13.364Z,90.80
2018-11-10T14:57:17.078Z,90.80
2018-11-10T14:59:20.831Z,90.80
2018-11-10T15:01:24.689Z,90.80
2018-11-10T15:03:28.469Z,90.80
2018-11-10T15:05:32.174Z,90.80
2018-11-10T15:07:36.005Z,90.80
2018-11-10T15:09:40.005Z,90.80
2018-11-10T15:11:44.042Z,90.80
2018-11-10T15:13:47.758Z,90.80
2018-11-10T15:15:51.638Z,90.80
2018-11-10T15:17:56.274Z,90.80
2018-11-10T15:19:59.894Z,90.90
2018-11-10T15:22:03.793Z,90.90
2018-11-10T15:24:07.663Z,90.90
2018-11-10T15:26:11.435Z,90.90
2018-11-10T15:28:15.165Z,90.90
2018-11-10T15:30:20.290Z,90.80
2018-11-10T15:32:24.101Z,90.90
2018-11-10T15:34:27.721Z,91.00
2018-11-10T15:36:31.445Z,91.10
2018-11-10T15:38:35.982Z,91.10
2018-11-10T15:40:39.657Z,91.10
2018-11-10T15:42:43.537Z,91.20
2018-11-10T15:44:48.151Z,91.10
2018-11-10T15:46:51.973Z,91.00
2018-11-10T15:48:55.705Z,91.00
2018-11-10T15:50:59.385Z,91.00
2018-11-10T15:53:03.225Z,91.00
2018-11-10T15:55:07.966Z,90.90
2018-11-10T15:57:11.845Z,90.90
2018-11-10T15:59:15.509Z,91.00
2018-11-10T16:01:19.250Z,90.90
2018-11-10T16:03:23.143Z,91.00
2018-11-10T16:05:26.929Z,91.00
2018-11-10T16:07:30.701Z,91.10
2018-11-10T16:09:34.662Z,91.00
2018-11-10T16:11:38.538Z,91.00
2018-11-10T16:13:42.253Z,91.10
2018-11-10T16:15:46.357Z,91.00
2018-11-10T16:17:50.257Z,90.90
2018-11-10T16:19:53.985Z,91.10
2018-11-10T16:21:57.681Z,91.10
2018-11-10T16:24:01.354Z,91.10
2018-11-10T16:26:05.861Z,91.20
2018-11-10T16:28:09.604Z,91.10
2018-11-10T16:30:14.665Z,91.20
2018-11-10T16:32:18.335Z,91.00
2018-11-10T16:34:22.068Z,91.10
2018-11-10T16:36:25.793Z,91.20
2018-11-10T16:38:29.558Z,91.20
2018-11-10T16:40:33.305Z,91.10
2018-11-10T16:42:37.310Z,91.10
2018-11-10T16:44:40.963Z,91.10
2018-11-10T16:46:44.706Z,91.10
2018-11-10T16:48:48.377Z,91.10
2018-11-10T16:50:52.050Z,91.20
2018-11-10T16:52:55.837Z,91.20
2018-11-10T16:54:59.748Z,91.10
2018-11-10T16:57:03.529Z,91.10
2018-11-10T16:59:07.930Z,91.20
2018-11-10T17:01:11.622Z,91.20
2018-11-10T17:03:15.286Z,91.30
2018-11-10T17:05:19.077Z,91.30
2018-11-10T17:07:22.889Z,91.20
2018-11-10T17:09:26.580Z,91.20
2018-11-10T17:11:30.225Z,91.20
2018-11-10T17:13:34.159Z,91.20
2018-11-10T17:15:37.933Z,91.30
2018-11-10T17:17:41.634Z,91.30
2018-11-10T17:19:45.470Z,91.40
2018-11-10T17:21:49.246Z,91.40
2018-11-10T17:23:52.925Z,91.30
2018-11-10T17:25:56.618Z,91.30
2018-11-10T17:28:00.341Z,91.40
2018-11-10T17:30:04.203Z,91.30
2018-11-10T17:32:07.996Z,91.30
2018-11-10T17:34:11.734Z,91.30
2018-11-10T17:36:15.403Z,91.30
2018-11-10T17:38:19.189Z,91.30
2018-11-10T17:40:22.942Z,91.40
2018-11-10T17:42:27.548Z,91.40
2018-11-10T17:44:31.462Z,91.40
2018-11-10T17:46:35.233Z,91.40
2018-11-10T17:48:38.890Z,91.50
2018-11-10T17:50:42.645Z,91.50
2018-11-10T17:52:46.598Z,91.50
2018-11-10T17:54:50.558Z,91.50
2018-11-10T17:56:54.209Z,91.50
2018-11-10T17:58:57.919Z,91.40
2018-11-10T18:01:01.724Z,91.50
2018-11-10T18:03:05.723Z,91.50
2018-11-10T18:05:11.601Z,91.60
2018-11-10T18:07:15.392Z,91.60
2018-11-10T18:09:19.057Z,91.60
2018-11-10T18:11:22.821Z,91.90
2018-11-10T18:13:26.738Z,91.50
2018-11-10T18:15:31.590Z,91.60
2018-11-10T18:17:35.362Z,91.60
2018-11-10T18:19:39.107Z,91.60
2018-11-10T18:21:43.146Z,91.60
2018-11-10T18:23:46.895Z,91.70
2018-11-10T18:25:50.610Z,91.70
2018-11-10T18:27:54.317Z,91.80
2018-11-10T18:29:58.097Z,91.70
2018-11-10T18:32:01.857Z,91.70
2018-11-10T18:34:05.858Z,91.60
2018-11-10T18:36:09.656Z,91.60
2018-11-10T18:38:14.317Z,91.60
2018-11-10T18:40:17.998Z,91.70
2018-11-10T18:42:21.854Z,91.70
2018-11-10T18:44:25.694Z,91.70
2018-11-10T18:46:29.428Z,91.60
2018-11-10T18:48:33.138Z,91.70
2018-11-10T18:50:36.877Z,91.60
2018-11-10T18:52:41.441Z,91.50
2018-11-10T18:54:45.214Z,91.60
2018-11-10T18:56:49.030Z,91.60
2018-11-10T18:58:52.722Z,91.50
2018-11-10T19:00:56.414Z,91.50
2018-11-10T19:03:00.175Z,91.60
2018-11-10T19:05:04.703Z,91.50
2018-11-10T19:07:08.582Z,91.60
2018-11-10T19:09:13.830Z,91.50
2018-11-10T19:11:17.453Z,91.50
2018-11-10T19:13:21.152Z,91.50
2018-11-10T19:15:24.822Z,91.50
2018-11-10T19:17:28.580Z,91.50
2018-11-10T19:19:33.107Z,91.50
2018-11-10T19:21:36.787Z,91.50
2018-11-10T19:23:40.482Z,91.80
2018-11-10T19:25:44.861Z,91.60
2018-11-10T19:27:48.757Z,91.60
2018-11-10T19:29:53.409Z,91.50
2018-11-10T19:31:57.844Z,91.40
2018-11-10T19:34:01.573Z,91.40
2018-11-10T19:36:05.566Z,91.40
2018-11-10T19:38:09.690Z,91.50
2018-11-10T19:40:13.521Z,91.30
2018-11-10T19:42:17.246Z,91.30
2018-11-10T19:44:20.936Z,91.30
2018-11-10T19:46:24.735Z,91.40
2018-11-10T19:48:29.917Z,91.50
2018-11-10T19:50:33.853Z,91.30
2018-11-10T19:52:37.644Z,91.30
2018-11-10T19:54:41.464Z,91.30
2018-11-10T19:56:45.155Z,91.30
2018-11-10T19:58:48.825Z,91.30
2018-11-10T20:00:52.522Z,91.20
2018-11-10T20:02:56.368Z,91.20
2018-11-10T20:05:00.175Z,91.30
2018-11-10T20:07:03.883Z,91.20
2018-11-10T20:09:10.576Z,91.30
2018-11-10T20:11:14.441Z,91.20
2018-11-10T20:13:18.123Z,91.30
2018-11-10T20:15:21.739Z,91.30
2018-11-10T20:17:25.527Z,91.20
2018-11-10T20:19:29.344Z,91.30
2018-11-10T20:21:33.053Z,91.20
2018-11-10T20:23:36.961Z,91.30
2018-11-10T20:25:40.631Z,91.20
2018-11-10T20:27:44.228Z,91.30
2018-11-10T20:29:48.373Z,91.30
2018-11-10T20:31:52.018Z,91.20
2018-11-10T20:33:57.058Z,91.30
2018-11-10T20:36:00.786Z,91.30
2018-11-10T20:38:04.753Z,91.30
2018-11-10T20:40:10.030Z,91.20
2018-11-10T20:42:13.906Z,91.30
2018-11-10T20:44:18.383Z,91.30
2018-11-10T20:46:22.265Z,91.30
2018-11-10T20:48:25.956Z,91.30
2018-11-10T20:50:29.713Z,91.30
2018-11-10T20:52:35.317Z,91.30
2018-11-10T20:54:39.585Z,91.30
2018-11-10T20:56:43.215Z,91.30
2018-11-10T20:58:46.949Z,91.30
2018-11-10T21:00:50.797Z,91.40
2018-11-10T21:02:54.504Z,91.30
2018-11-10T21:04:58.657Z,91.30
2018-11-10T21:07:02.311Z,91.40
2018-11-10T21:09:08.753Z,91.40
2018-11-10T21:11:12.604Z,91.30
2018-11-10T21:13:16.405Z,91.40
2018-11-10T21:15:20.798Z,91.30
2018-11-10T21:17:24.454Z,91.30
2018-11-10T21:19:28.241Z,91.30
2018-11-10T21:21:32.167Z,91.30
2018-11-10T21:23:35.965Z,91.40
2018-11-10T21:25:39.684Z,91.30
2018-11-10T21:27:43.734Z,91.50
2018-11-10T21:29:47.581Z,91.40
2018-11-10T21:31:51.246Z,91.40
2018-11-10T21:33:54.943Z,91.40
2018-11-10T21:35:58.597Z,91.40
2018-11-10T21:38:02.261Z,91.40
2018-11-10T21:40:12.081Z,91.50
2018-11-10T21:42:15.810Z,91.40
2018-11-10T21:44:19.439Z,91.40
2018-11-10T21:46:23.201Z,91.40
2018-11-10T21:48:26.912Z,91.40
2018-11-10T21:50:30.586Z,91.40
2018-11-10T21:52:34.339Z,91.50
2018-11-10T21:54:38.137Z,91.50
2018-11-10T21:56:41.905Z,91.50
2018-11-10T21:58:45.754Z,91.50
2018-11-10T22:00:50.164Z,91.50
2018-11-10T22:02:53.986Z,91.50
2018-11-10T22:04:57.665Z,91.60
2018-11-10T22:07:01.809Z,91.60
2018-11-10T22:09:09.223Z,91.60
2018-11-10T22:11:12.822Z,91.60
2018-11-10T22:13:16.952Z,91.50
2018-11-10T22:15:22.227Z,91.60
2018-11-10T22:17:26.869Z,91.50
2018-11-10T22:19:30.606Z,91.60
2018-11-10T22:21:34.545Z,91.50
2018-11-10T22:23:38.267Z,91.50
2018-11-10T22:25:41.861Z,91.50
2018-11-10T22:27:47.161Z,91.60
2018-11-10T22:29:50.814Z,91.80
2018-11-10T22:31:54.488Z,91.60
2018-11-10T22:33:58.169Z,91.60
2018-11-10T22:36:01.842Z,91.60
2018-11-10T22:38:05.644Z,91.60
2018-11-10T22:40:11.485Z,91.60
2018-11-10T22:42:16.197Z,91.60
2018-11-10T22:44:19.866Z,91.50
2018-11-10T22:46:23.629Z,91.60
2018-11-10T22:48:27.333Z,91.60
2018-11-10T22:50:31.238Z,91.50
2018-11-10T22:52:35.025Z,91.50
2018-11-10T22:54:38.761Z,91.50
2018-11-10T22:56:42.615Z,91.60
2018-11-10T22:58:46.326Z,91.60
2018-11-10T23:00:55.217Z,91.50
2018-11-10T23:03:00.218Z,91.50
2018-11-10T23:05:04.567Z,91.60
2018-11-10T23:07:08.324Z,91.60
2018-11-10T23:09:11.917Z,91.50
2018-11-10T23:11:15.628Z,91.50
2018-11-10T23:13:19.354Z,91.60
2018-11-10T23:15:23.010Z,91.60
2018-11-10T23:17:26.845Z,91.60
2018-11-10T23:19:30.539Z,91.60
2018-11-10T23:21:35.159Z,91.60
2018-11-10T23:23:38.951Z,91.60
2018-11-10T23:25:42.498Z,91.60
2018-11-10T23:27:46.234Z,91.60
2018-11-10T23:29:49.929Z,91.70
2018-11-10T23:31:54.107Z,91.60
2018-11-10T23:33:57.858Z,91.70
2018-11-10T23:36:01.706Z,91.70
2018-11-10T23:38:05.578Z,91.80
2018-11-10T23:40:11.344Z,91.70
2018-11-10T23:42:15.228Z,91.80
2018-11-10T23:44:18.857Z,91.80
2018-11-10T23:46:22.545Z,91.70
2018-11-10T23:48:26.305Z,91.80
2018-11-10T23:50:29.949Z,92.10
2018-11-10T23:52:33.833Z,91.90
2018-11-10T23:54:37.554Z,91.90
2018-11-10T23:56:41.299Z,91.90
2018-11-10T23:58:45.074Z,91.90
